Time;durP1;ratioP1;P1;durP2;ratioP2;P2;SDS_P1;SDS_P2;PMS_P1;PMS_P2;Temp;Humidity;BMP_temperature;BMP_pressure;BME280_temperature;BME280_humidity;BME280_pressure;Samples;Min_cycle;Max_cycle;Signal;HPM_P1;HPM_P2
2022/12/27 00:01:30;;;;;;;39.93;29.93;;;;;;;4.72;65.74;100439.09;5051432;28;20094;-79
2022/12/27 00:03:56;;;;;;;41.03;27.27;;;;;;;4.52;65.50;100403.19;5052681;28;20108;-79
2022/12/27 00:06:24;;;;;;;41.00;28.83;;;;;;;4.21;65.54;100357.63;5052657;28;20075;-79
2022/12/27 00:08:49;;;;;;;34.23;25.20;;;;;;;4.38;65.54;100388.53;5052424;28;20453;-79
2022/12/27 00:11:21;;;;;;;36.07;27.27;;;;;;;4.71;65.59;100437.44;5052002;28;20045;-79
2022/12/27 00:13:47;;;;;;;37.53;28.00;;;;;;;4.73;65.47;100442.53;5052309;28;20498;-79
2022/12/27 00:16:15;;;;;;;36.63;26.87;;;;;;;4.73;65.43;100435.53;5054740;28;20028;-79
2022/12/27 00:18:41;;;;;;;37.00;26.80;;;;;;;4.50;65.42;100402.47;5058109;28;20040;-79
2022/12/27 00:21:08;;;;;;;31.80;25.10;;;;;;;4.65;65.37;100443.13;5057806;28;20051;-79
2022/12/27 00:23:37;;;;;;;29.80;23.53;;;;;;;4.61;65.45;100435.66;5057472;28;20025;-79
2022/12/27 00:26:12;;;;;;;27.93;21.37;;;;;;;4.62;65.44;100437.31;5057071;28;20527;-79
2022/12/27 00:28:37;;;;;;;29.07;22.57;;;;;;;4.29;65.63;100384.00;5057806;28;20394;-79
2022/12/27 00:31:07;;;;;;;31.70;22.57;;;;;;;4.63;65.49;100431.13;5057298;28;20047;-79
2022/12/27 00:33:34;;;;;;;30.03;21.37;;;;;;;4.67;65.34;100428.16;5057162;28;20078;-79
2022/12/27 00:36:01;;;;;;;32.77;24.63;;;;;;;3.96;65.25;100316.03;5057465;28;20406;-79
2022/12/27 00:38:27;;;;;;;27.37;22.13;;;;;;;4.53;65.33;100407.47;5057651;28;20017;-79
2022/12/27 00:40:53;;;;;;;27.67;21.20;;;;;;;4.71;65.13;100474.06;5057674;28;20100;-79
2022/12/27 00:43:19;;;;;;;66.77;42.63;;;;;;;4.40;65.21;100381.41;5057765;28;20063;-78
2022/12/27 00:45:44;;;;;;;41.50;28.87;;;;;;;4.04;65.16;100326.72;5056127;28;20401;-79
2022/12/27 00:48:11;;;;;;;25.00;19.80;;;;;;;4.52;65.53;100425.88;5051635;28;20025;-79
2022/12/27 00:50:39;;;;;;;26.90;20.70;;;;;;;4.58;65.29;100414.97;5051923;28;20029;-79
2022/12/27 00:53:04;;;;;;;25.17;19.67;;;;;;;3.86;64.99;100281.09;5051936;28;20520;-79
2022/12/27 00:55:29;;;;;;;25.73;20.17;;;;;;;4.20;65.14;100335.06;5051641;28;20033;-79
2022/12/27 00:57:55;;;;;;;22.93;18.37;;;;;;;3.77;65.22;100272.19;5051601;28;20021;-79
2022/12/27 01:00:20;;;;;;;26.03;19.83;;;;;;;4.64;65.28;100411.88;5051990;28;20466;-79
2022/12/27 01:02:46;;;;;;;26.63;20.90;;;;;;;4.67;65.32;100419.47;5057566;28;20049;-79
2022/12/27 01:05:11;;;;;;;24.77;19.37;;;;;;;4.22;65.11;100345.38;5057928;28;20024;-79
2022/12/27 01:07:36;;;;;;;28.73;20.73;;;;;;;4.34;65.05;100355.72;5057586;28;20029;-78
2022/12/27 01:10:02;;;;;;;25.63;19.30;;;;;;;4.16;65.24;100336.22;5057680;28;20021;-79
2022/12/27 01:12:28;;;;;;;25.37;19.50;;;;;;;3.38;65.19;100219.41;5057280;28;20496;-79
2022/12/27 01:14:53;;;;;;;26.37;19.50;;;;;;;4.49;65.29;100398.19;5058129;28;20029;-78
2022/12/27 01:17:18;;;;;;;28.50;21.93;;;;;;;4.39;65.38;100392.81;5057176;28;20027;-78
2022/12/27 01:19:44;;;;;;;34.67;25.50;;;;;;;4.51;65.48;100414.59;5057508;28;20021;-79
2022/12/27 01:22:09;;;;;;;31.33;22.83;;;;;;;3.63;65.21;100267.16;5058003;28;20032;-78
2022/12/27 01:24:35;;;;;;;28.13;21.00;;;;;;;4.54;65.31;100408.28;5060255;28;20017;-78
2022/12/27 01:27:00;;;;;;;24.80;18.90;;;;;;;4.43;65.44;100406.47;5057526;28;20076;-79
2022/12/27 01:29:25;;;;;;;24.87;17.13;;;;;;;4.18;65.50;100368.31;5055537;28;20131;-79
2022/12/27 01:31:51;;;;;;;23.03;15.87;;;;;;;3.98;65.68;100342.88;5055987;28;20508;-79
2022/12/27 01:34:17;;;;;;;24.23;18.53;;;;;;;4.19;65.49;100379.59;5056291;28;20580;-79
2022/12/27 01:36:43;;;;;;;23.30;16.67;;;;;;;2.75;65.71;100142.38;5056890;28;20091;-78
2022/12/27 01:39:12;;;;;;;23.33;17.13;;;;;;;4.11;65.60;100361.88;5057093;28;20048;-79
2022/12/27 01:44:34;;;;;;;23.07;17.37;;;;;;;4.36;65.49;100392.22;5056952;28;20039;-78
2022/12/27 01:47:01;;;;;;;28.20;20.73;;;;;;;4.06;65.23;100336.09;5053126;28;20405;-79
2022/12/27 01:49:27;;;;;;;26.27;19.87;;;;;;;4.05;65.57;100344.91;5052125;28;20555;-79
2022/12/27 01:51:52;;;;;;;30.17;20.90;;;;;;;4.34;65.62;100378.44;5049870;28;20021;-79
2022/12/27 01:54:18;;;;;;;32.27;22.93;;;;;;;3.73;65.47;100287.25;5051147;28;20053;-79
2022/12/27 01:56:43;;;;;;;29.40;21.40;;;;;;;3.73;65.48;100275.97;5051115;28;20020;-79
2022/12/27 01:59:11;;;;;;;28.53;21.10;;;;;;;4.33;65.52;100372.38;5051436;28;20517;-79
2022/12/27 02:01:43;;;;;;;27.40;20.70;;;;;;;4.32;65.39;100383.78;5051253;28;20021;-80
2022/12/27 02:04:16;;;;;;;26.63;21.43;;;;;;;4.31;65.17;100382.09;5051194;28;20068;-80
2022/12/27 02:06:42;;;;;;;25.30;20.27;;;;;;;4.32;65.26;100370.69;5051102;28;20390;-79
2022/12/27 02:09:39;;;;;;;24.90;19.13;;;;;;;4.29;65.12;100372.72;5053108;28;20040;-79
2022/12/27 02:12:07;;;;;;;31.30;21.17;;;;;;;3.60;65.26;100262.16;5054153;28;20403;-79
2022/12/27 02:14:42;;;;;;;26.20;20.83;;;;;;;4.20;65.27;100384.72;5054599;28;20079;-79
2022/12/27 02:17:22;;;;;;;28.80;20.27;;;;;;;4.16;65.06;100378.06;5054739;28;20017;-80
2022/12/27 02:20:05;;;;;;;23.13;18.17;;;;;;;4.12;65.06;100376.63;5054737;28;20028;-79
2022/12/27 02:24:01;;;;;;;24.70;17.70;;;;;;;4.11;65.60;100375.78;5054546;28;20493;-79
2022/12/27 02:25:49;;;;;;;24.93;18.63;;;;;;;4.05;65.59;100363.19;5054407;28;20025;-79
2022/12/27 02:28:42;;;;;;;24.07;19.03;;;;;;;4.04;65.61;100371.16;5054260;28;20028;-79
2022/12/27 02:31:18;;;;;;;26.10;18.90;;;;;;;2.93;65.66;100192.31;5056145;28;20029;-79
2022/12/27 02:33:48;;;;;;;24.80;18.33;;;;;;;4.11;65.52;100362.72;5058358;28;20017;-79
2022/12/27 02:36:26;;;;;;;31.00;20.97;;;;;;;4.06;65.33;100351.78;5058394;28;20024;-79
2022/12/27 02:38:56;;;;;;;29.20;19.93;;;;;;;4.11;65.66;100370.56;5058912;28;20529;-79
2022/12/27 02:53:29;;;;;;;22.93;16.33;;;;;;;3.98;65.37;100379.44;5057891;28;20044;-79
2022/12/27 02:59:16;;;;;;;18.87;14.83;;;;;;;3.98;65.70;100358.53;5055876;28;20421;-80
2022/12/27 03:05:17;;;;;;;23.27;16.20;;;;;;;4.01;65.64;100366.97;5058031;28;20048;-79
2022/12/27 03:08:07;;;;;;;22.57;17.67;;;;;;;3.95;65.51;100377.06;5058147;28;20081;-79
2022/12/27 03:16:54;;;;;;;21.10;15.77;;;;;;;3.75;65.79;100326.31;5058160;28;20032;-79
2022/12/27 03:25:26;;;;;;;27.87;20.73;;;;;;;3.91;65.59;100331.22;5058393;28;20106;-79
2022/12/27 03:33:26;;;;;;;23.63;17.83;;;;;;;3.15;65.77;100205.47;5053509;28;20035;-79
2022/12/27 03:39:02;;;;;;;25.93;16.87;;;;;;;3.96;65.83;100365.66;5053714;28;20024;-79
2022/12/27 03:44:23;;;;;;;32.43;16.93;;;;;;;3.66;65.92;100293.03;5053222;28;20119;-79
2022/12/27 03:47:03;;;;;;;27.38;19.77;;;;;;;3.93;65.89;100338.00;5052647;28;20028;-79
2022/12/27 03:49:40;;;;;;;22.97;18.63;;;;;;;3.76;65.75;100313.16;5052668;28;20021;-79
2022/12/27 03:52:08;;;;;;;27.47;22.30;;;;;;;3.95;66.19;100338.72;5052752;28;20032;-79
2022/12/27 03:54:39;;;;;;;26.33;19.70;;;;;;;3.23;65.83;100220.56;5052932;28;20028;-79
2022/12/27 03:57:08;;;;;;;26.53;18.57;;;;;;;4.00;65.82;100354.03;5052810;28;20025;-79
2022/12/27 03:59:34;;;;;;;26.57;20.27;;;;;;;3.31;65.88;100240.84;5052718;28;20074;-79
2022/12/27 04:02:00;;;;;;;28.00;20.67;;;;;;;4.04;65.78;100350.25;5052785;28;20567;-79
2022/12/27 04:04:26;;;;;;;24.23;18.87;;;;;;;4.03;65.56;100359.03;5052844;28;20048;-79
2022/12/27 04:06:51;;;;;;;25.67;19.93;;;;;;;4.03;65.67;100353.81;5052692;28;20495;-79
2022/12/27 04:36:36;;;;;;;29.37;21.37;;;;;;;3.02;65.78;100238.63;5052228;28;20178;-80
2022/12/27 04:39:02;;;;;;;30.00;21.83;;;;;;;3.31;65.73;100270.41;5052060;28;20508;-79
2022/12/27 04:55:17;;;;;;;45.27;29.83;;;;;;;3.81;66.13;100342.38;5051836;28;20043;-79
2022/12/27 04:57:42;;;;;;;43.00;27.43;;;;;;;3.48;66.11;100292.63;5051700;28;20036;-79
2022/12/27 05:02:53;;;;;;;41.20;27.80;;;;;;;3.34;65.82;100253.69;5052723;28;20124;-79
2022/12/27 05:05:19;;;;;;;37.73;26.00;;;;;;;3.95;66.08;100348.31;5054959;28;20493;-79
2022/12/27 05:15:56;;;;;;;29.93;24.10;;;;;;;3.28;65.74;100238.47;5055314;28;20039;-79
2022/12/27 05:18:22;;;;;;;33.67;23.93;;;;;;;3.97;65.50;100356.88;5054669;28;20104;-80
2022/12/27 05:20:48;;;;;;;32.50;25.33;;;;;;;3.34;65.80;100251.91;5052859;28;20041;-79
2022/12/27 05:25:57;;;;;;;39.43;30.07;;;;;;;3.63;65.56;100301.94;5054647;28;20059;-79
2022/12/27 05:28:23;;;;;;;39.13;29.03;;;;;;;3.31;65.64;100257.34;5054749;28;20025;-79
2022/12/27 05:30:48;;;;;;;45.27;34.10;;;;;;;3.76;65.76;100325.38;5055110;28;20025;-79
2022/12/27 05:33:14;;;;;;;46.83;33.43;;;;;;;3.61;65.69;100303.81;5055679;28;20036;-79
2022/12/27 05:35:40;;;;;;;40.83;30.77;;;;;;;3.88;65.79;100363.63;5056126;28;20067;-79
2022/12/27 05:38:05;;;;;;;43.67;34.97;;;;;;;3.92;65.42;100378.13;5054731;28;20413;-79
2022/12/27 05:40:31;;;;;;;48.03;35.10;;;;;;;3.89;65.50;100362.69;5054283;28;20035;-79
2022/12/27 05:42:58;;;;;;;47.23;36.53;;;;;;;3.72;65.41;100337.00;5055809;28;20025;-79
2022/12/27 05:45:23;;;;;;;50.37;35.37;;;;;;;3.79;65.46;100349.47;5058672;28;20456;-79
2022/12/27 05:47:49;;;;;;;50.40;35.67;;;;;;;3.92;65.37;100372.06;5059486;28;20029;-79
2022/12/27 05:50:14;;;;;;;44.83;33.23;;;;;;;3.17;65.29;100258.38;5060150;28;20021;-79
2022/12/27 05:52:40;;;;;;;47.27;34.63;;;;;;;3.55;65.35;100306.91;5059673;28;20033;-79
2022/12/27 05:55:06;;;;;;;61.97;44.63;;;;;;;3.93;65.35;100389.41;5059616;28;20047;-79
2022/12/27 05:57:32;;;;;;;69.97;47.13;;;;;;;2.36;65.36;100140.91;5058482;28;20017;-79
2022/12/27 05:59:58;;;;;;;88.60;58.40;;;;;;;3.60;65.40;100328.28;5059870;28;20032;-79
2022/12/27 06:02:23;;;;;;;82.70;57.50;;;;;;;3.09;64.94;100260.72;5055291;28;20025;-79
2022/12/27 06:04:48;;;;;;;83.57;58.20;;;;;;;3.86;65.00;100364.69;5055073;28;20025;-79
2022/12/27 06:07:14;;;;;;;72.97;53.23;;;;;;;4.04;64.79;100386.81;5054738;28;20040;-79
2022/12/27 06:09:40;;;;;;;75.13;52.73;;;;;;;2.48;64.86;100155.66;5054664;28;20502;-80
2022/12/27 06:12:05;;;;;;;69.03;47.87;;;;;;;3.93;64.91;100395.47;5054444;28;20053;-79
2022/12/27 06:14:31;;;;;;;56.30;38.97;;;;;;;3.75;65.14;100357.66;5054514;28;20498;-78
2022/12/27 06:16:56;;;;;;;55.80;40.90;;;;;;;3.33;65.01;100294.59;5057083;28;20563;-79
2022/12/27 06:19:22;;;;;;;55.87;40.63;;;;;;;3.94;65.06;100394.53;5058881;28;20033;-79
2022/12/27 06:21:48;;;;;;;51.80;37.77;;;;;;;3.41;64.81;100313.13;5058790;28;20049;-79
2022/12/27 06:24:14;;;;;;;50.40;35.00;;;;;;;3.78;64.97;100370.50;5058316;28;20035;-79
2022/12/27 06:26:41;;;;;;;42.43;31.13;;;;;;;3.09;64.80;100270.31;5058449;28;20021;-79
2022/12/27 06:29:06;;;;;;;54.53;43.47;;;;;;;3.70;64.94;100372.81;5058026;28;20395;-78
2022/12/27 06:31:32;;;;;;;58.63;42.10;;;;;;;3.89;65.06;100407.09;5056113;28;20088;-79
2022/12/27 06:33:57;;;;;;;61.37;47.90;;;;;;;3.83;65.05;100390.09;5054154;28;20078;-79
2022/12/27 06:36:29;;;;;;;66.43;51.37;;;;;;;3.87;65.05;100382.88;5053322;28;20086;-79
2022/12/27 06:38:55;;;;;;;72.63;52.60;;;;;;;3.86;65.16;100383.81;5054732;28;20100;-79
2022/12/27 06:41:20;;;;;;;60.77;45.93;;;;;;;3.13;64.79;100258.72;5054327;28;20036;-79
2022/12/27 06:43:46;;;;;;;58.27;45.33;;;;;;;3.43;64.92;100297.38;5054479;28;20025;-78
2022/12/27 06:46:14;;;;;;;63.40;45.07;;;;;;;3.98;64.98;100390.72;5054196;28;20052;-79
2022/12/27 06:48:40;;;;;;;73.03;52.97;;;;;;;3.37;64.54;100298.66;5054067;28;20117;-79
2022/12/27 06:51:07;;;;;;;74.50;56.67;;;;;;;3.73;64.59;100360.38;5054098;28;20501;-78
2022/12/27 06:53:35;;;;;;;70.80;54.23;;;;;;;3.87;64.99;100382.88;5053796;28;20055;-79
2022/12/27 06:56:09;;;;;;;69.17;50.33;;;;;;;3.41;65.24;100307.91;5053684;28;20035;-79
2022/12/27 06:58:35;;;;;;;89.37;64.83;;;;;;;3.35;64.99;100303.16;5052734;28;20061;-78
2022/12/27 07:01:12;;;;;;;79.80;56.87;;;;;;;3.53;64.96;100334.06;5055645;28;20112;-79
2022/12/27 07:03:38;;;;;;;77.00;54.43;;;;;;;3.95;65.15;100390.97;5057515;28;20021;-79
2022/12/27 07:06:08;;;;;;;64.53;47.33;;;;;;;3.94;65.19;100384.06;5059054;28;20033;-79
2022/12/27 07:08:35;;;;;;;70.90;53.37;;;;;;;3.76;65.20;100354.09;5057852;28;20029;-78
2022/12/27 07:11:05;;;;;;;86.70;61.23;;;;;;;3.85;64.99;100350.81;5058347;28;20036;-79
2022/12/27 07:13:36;;;;;;;82.83;59.07;;;;;;;4.04;64.75;100363.31;5059124;28;20088;-79
2022/12/27 07:16:06;;;;;;;70.13;52.57;;;;;;;4.21;64.94;100372.47;5055721;28;20421;-78
2022/12/27 07:18:32;;;;;;;69.13;51.87;;;;;;;4.25;64.95;100379.97;5053869;28;20028;-79
2022/12/27 07:20:58;;;;;;;72.10;54.43;;;;;;;4.34;64.65;100383.66;5053742;28;20021;-79
2022/12/27 07:23:24;;;;;;;71.90;55.63;;;;;;;4.37;64.69;100386.03;5053709;28;20509;-79
2022/12/27 07:25:49;;;;;;;75.23;58.70;;;;;;;3.03;64.81;100156.81;5052489;28;20110;-79
2022/12/27 07:28:14;;;;;;;69.17;54.40;;;;;;;4.38;64.81;100372.00;5053340;28;20031;-79
2022/12/27 07:30:41;;;;;;;68.13;50.93;;;;;;;3.44;64.69;100218.09;5054878;28;20027;-79
2022/12/27 07:33:07;;;;;;;77.40;59.73;;;;;;;3.66;64.85;100230.34;5059014;28;20024;-78
2022/12/27 07:35:32;;;;;;;80.83;59.57;;;;;;;4.36;64.81;100351.22;5059088;28;20032;-78
2022/12/27 07:37:58;;;;;;;70.07;55.87;;;;;;;4.20;64.75;100306.31;5059373;28;20032;-78
2022/12/27 07:40:24;;;;;;;74.07;56.07;;;;;;;4.16;64.82;100294.41;5059532;28;20047;-78
2022/12/27 07:42:49;;;;;;;68.33;54.07;;;;;;;4.12;64.77;100275.53;5060298;28;20017;-78
2022/12/27 07:45:14;;;;;;;70.87;52.77;;;;;;;4.68;64.60;100374.88;5060017;28;20028;-78
2022/12/27 07:47:40;;;;;;;72.70;55.30;;;;;;;4.32;64.50;100281.00;5052735;28;20035;-79
2022/12/27 07:50:06;;;;;;;82.30;58.97;;;;;;;4.92;64.85;100366.88;5051687;28;20021;-79
2022/12/27 07:52:31;;;;;;;80.90;59.73;;;;;;;4.82;64.57;100344.19;5053268;28;20027;-79
2022/12/27 07:54:56;;;;;;;85.00;66.00;;;;;;;4.99;64.59;100357.59;5053143;28;20052;-79
2022/12/27 07:57:22;;;;;;;88.70;65.40;;;;;;;4.35;64.89;100242.38;5053007;28;20036;-79
2022/12/27 07:59:47;;;;;;;81.87;61.93;;;;;;;5.14;64.71;100344.22;5052960;28;20024;-78
2022/12/27 08:02:15;;;;;;;79.53;58.20;;;;;;;5.19;64.70;100369.09;5052562;28;20028;-79
2022/12/27 08:04:40;;;;;;;78.03;60.10;;;;;;;5.13;64.74;100329.47;5052340;28;20013;-78
2022/12/27 08:07:18;;;;;;;71.60;53.00;;;;;;;5.19;64.69;100327.19;5051495;28;20025;-79
2022/12/27 08:09:46;;;;;;;66.13;51.53;;;;;;;5.40;64.64;100351.66;5052613;28;20025;-79
2022/12/27 08:12:14;;;;;;;61.60;47.47;;;;;;;5.37;64.91;100330.97;5052339;28;20076;-79
2022/12/27 08:14:41;;;;;;;65.20;50.83;;;;;;;4.85;64.76;100231.44;5052525;28;20082;-78
2022/12/27 08:17:15;;;;;;;66.80;50.27;;;;;;;5.33;64.26;100298.13;5052728;28;20537;-79
2022/12/27 08:19:40;;;;;;;59.43;46.47;;;;;;;5.58;64.53;100319.69;5052320;28;20028;-79
2022/12/27 08:22:05;;;;;;;58.33;47.30;;;;;;;5.46;64.68;100291.88;5051009;28;20383;-79
2022/12/27 08:24:31;;;;;;;77.50;57.70;;;;;;;4.89;64.24;100173.50;5051994;28;20108;-79
2022/12/27 08:26:57;;;;;;;64.93;50.80;;;;;;;6.02;64.60;100347.47;5052086;28;20043;-79
2022/12/27 08:29:22;;;;;;;67.53;49.70;;;;;;;6.07;64.57;100334.81;5051959;28;20017;-79
2022/12/27 08:31:48;;;;;;;75.32;61.33;;;;;;;6.16;64.74;100344.50;5050757;28;20395;-79
2022/12/27 08:34:13;;;;;;;78.63;62.03;;;;;;;6.24;64.90;100341.25;5052148;28;20017;-79
2022/12/27 08:36:39;;;;;;;67.70;53.13;;;;;;;6.31;64.53;100332.72;5051899;28;20029;-79
2022/12/27 08:39:06;;;;;;;76.30;57.70;;;;;;;5.01;64.51;100111.47;5051867;28;20152;-79
2022/12/27 08:41:31;;;;;;;68.68;51.47;;;;;;;6.29;64.41;100302.34;5050562;28;20036;-79
2022/12/27 08:43:57;;;;;;;72.88;56.92;;;;;;;6.27;63.99;100286.75;5051770;28;20025;-79
2022/12/27 08:46:22;;;;;;;66.30;50.08;;;;;;;6.64;63.78;100336.84;5051857;28;20096;-79
2022/12/27 08:48:48;;;;;;;66.22;52.20;;;;;;;6.72;63.89;100324.88;5051464;28;20032;-79
2022/12/27 08:51:14;;;;;;;74.15;56.72;;;;;;;6.77;63.90;100335.81;5051679;28;20029;-78
2022/12/27 08:53:40;;;;;;;70.53;53.35;;;;;;;6.85;63.85;100326.28;5051334;28;20184;-78
2022/12/27 08:56:05;;;;;;;76.32;59.40;;;;;;;6.92;63.84;100343.16;5051426;28;20104;-78
2022/12/27 08:58:31;;;;;;;68.60;53.40;;;;;;;7.01;64.09;100315.25;5051437;28;20025;-78
2022/12/27 09:01:06;;;;;;;75.85;57.03;;;;;;;6.64;64.87;100249.41;5051600;28;20024;-77
2022/12/27 09:03:32;;;;;;;65.10;52.67;;;;;;;6.98;64.05;100276.16;5051673;28;20036;-80
2022/12/27 09:06:15;;;;;;;63.25;50.05;;;;;;;6.33;64.31;100160.31;5051777;28;20029;-79
2022/12/27 09:08:42;;;;;;;60.80;50.28;;;;;;;7.28;64.23;100297.03;5051753;28;20024;-79
2022/12/27 09:11:11;;;;;;;66.32;52.03;;;;;;;7.36;64.71;100298.13;5051471;28;20053;-80
2022/12/27 09:13:38;;;;;;;67.13;51.25;;;;;;;7.41;64.19;100291.50;5051512;28;20017;-79
2022/12/27 09:16:09;;;;;;;64.47;50.25;;;;;;;7.47;64.76;100290.13;5051635;28;20498;-77
2022/12/27 09:18:35;;;;;;;55.50;43.75;;;;;;;6.76;64.44;100176.69;5051514;28;20138;-79
2022/12/27 09:21:12;;;;;;;53.08;41.92;;;;;;;7.58;65.19;100276.84;5051584;28;20040;-79
2022/12/27 09:23:38;;;;;;;48.35;39.80;;;;;;;7.67;64.74;100301.47;5051684;28;20023;-79
2022/12/27 09:26:05;;;;;;;47.45;37.92;;;;;;;7.17;65.13;100200.00;5051750;28;20104;-79
2022/12/27 09:28:31;;;;;;;46.13;36.78;;;;;;;7.63;64.66;100230.78;5051410;28;20025;-80
2022/12/27 09:30:56;;;;;;;56.15;44.85;;;;;;;7.60;64.55;100233.69;5051319;28;20565;-79
2022/12/27 09:33:22;;;;;;;50.17;42.17;;;;;;;7.89;64.82;100259.91;5050071;28;20540;-79
2022/12/27 09:35:47;;;;;;;47.50;40.38;;;;;;;7.81;64.80;100232.66;5051381;28;20075;-79
2022/12/27 09:38:12;;;;;;;55.83;44.95;;;;;;;6.44;64.66;99990.69;5051731;28;20489;-78
2022/12/27 09:40:38;;;;;;;47.92;38.38;;;;;;;8.06;64.94;100233.81;5051580;28;20063;-79
2022/12/27 09:43:07;;;;;;;58.25;43.78;;;;;;;8.23;64.79;100252.31;5051259;28;20421;-79
2022/12/27 09:45:59;;;;;;;56.17;43.90;;;;;;;8.34;64.57;100253.13;5051304;28;20063;-79
2022/12/27 09:48:37;;;;;;;47.47;37.90;;;;;;;8.42;64.82;100255.84;5050888;28;20061;-79
2022/12/27 09:51:11;;;;;;;53.20;40.20;;;;;;;7.92;64.45;100150.97;5051503;28;20057;-79
2022/12/27 09:54:05;;;;;;;56.58;45.78;;;;;;;8.59;64.51;100244.53;5051671;28;20014;-78
2022/12/27 09:56:33;;;;;;;55.30;42.50;;;;;;;8.69;64.38;100249.75;5051123;28;20037;-79
2022/12/27 09:59:19;;;;;;;47.30;37.05;;;;;;;8.80;64.17;100229.28;5051436;28;20064;-79
2022/12/27 10:01:46;;;;;;;46.83;39.45;;;;;;;8.06;63.74;100100.53;5051182;28;20025;-80
2022/12/27 10:04:13;;;;;;;57.65;47.30;;;;;;;8.98;64.16;100226.69;5051183;28;20017;-79
2022/12/27 10:06:48;;;;;;;47.10;38.17;;;;;;;9.05;63.99;100219.84;5051133;28;20033;-79
2022/12/27 10:09:24;;;;;;;49.55;38.38;;;;;;;9.12;63.79;100223.50;5051370;28;20021;-79
2022/12/27 10:12:17;;;;;;;47.30;36.97;;;;;;;9.19;63.60;100207.94;5051141;28;20071;-79
2022/12/27 10:14:57;;;;;;;40.25;33.55;;;;;;;9.26;63.69;100216.88;5051344;28;20474;-79
2022/12/27 10:17:51;;;;;;;39.35;31.52;;;;;;;9.35;63.58;100212.50;5051248;28;20092;-79
2022/12/27 10:20:52;;;;;;;42.60;33.85;;;;;;;9.44;63.76;100212.41;5049372;28;20029;-79
2022/12/27 10:23:23;;;;;;;37.13;30.15;;;;;;;9.44;63.27;100193.94;5051299;28;20047;-79
2022/12/27 10:25:55;;;;;;;37.00;27.75;;;;;;;9.62;62.91;100207.06;5051244;28;20025;-80
2022/12/27 10:28:27;;;;;;;35.38;26.60;;;;;;;9.67;62.84;100199.56;5049840;28;20502;-79
2022/12/27 10:30:53;;;;;;;31.70;25.25;;;;;;;9.58;62.90;100184.63;5054377;28;20056;-79
2022/12/27 10:33:25;;;;;;;36.33;29.17;;;;;;;9.79;63.04;100192.19;5053888;28;20056;-80
2022/12/27 10:35:51;;;;;;;31.23;26.35;;;;;;;9.68;62.77;100161.66;5053922;28;20017;-79
2022/12/27 10:38:16;;;;;;;27.38;23.05;;;;;;;9.89;62.80;100182.34;5054321;28;20025;-79
2022/12/27 10:41:20;;;;;;;25.15;21.33;;;;;;;9.93;62.86;100183.69;5053925;28;20497;-79
2022/12/27 10:43:50;;;;;;;24.63;20.20;;;;;;;9.96;62.16;100172.81;5053815;28;20056;-79
2022/12/27 10:46:21;;;;;;;31.30;24.65;;;;;;;9.99;62.01;100177.78;5054328;28;20029;-79
2022/12/27 10:49:03;;;;;;;33.05;25.92;;;;;;;9.95;62.50;100167.72;5054704;28;20033;-79
2022/12/27 10:51:40;;;;;;;33.78;24.05;;;;;;;10.03;62.13;100175.66;5055330;28;20497;-80
2022/12/27 10:54:28;;;;;;;35.15;26.50;;;;;;;10.02;61.86;100180.09;5057366;28;20031;-81
2022/12/27 10:56:55;;;;;;;31.25;24.73;;;;;;;10.04;62.32;100170.22;5054998;28;20021;-78
2022/12/27 10:59:26;;;;;;;31.77;26.67;;;;;;;10.07;61.90;100161.16;5054302;28;20020;-79
2022/12/27 11:02:16;;;;;;;35.20;26.27;;;;;;;9.90;61.87;100128.63;5054671;28;20532;-79
2022/12/27 11:04:57;;;;;;;34.47;26.92;;;;;;;10.11;61.75;100176.50;5053797;28;20497;-79
2022/12/27 11:07:28;;;;;;;36.13;27.75;;;;;;;10.14;62.35;100147.16;5052499;28;20408;-79
2022/12/27 11:10:15;;;;;;;33.50;26.33;;;;;;;9.92;62.36;100105.53;5053961;28;20032;-79
2022/12/27 11:13:00;;;;;;;22.48;17.42;;;;;;;9.02;61.73;99954.13;5053628;28;20033;-80
2022/12/27 11:15:32;;;;;;;23.63;16.88;;;;;;;9.59;61.57;100024.66;5055788;28;20029;-79
2022/12/27 11:18:03;;;;;;;18.02;13.68;;;;;;;10.38;61.28;100132.41;5059146;28;20021;-80
2022/12/27 11:20:55;;;;;;;16.65;13.45;;;;;;;10.43;61.51;100136.25;5054581;28;20464;-79
2022/12/27 11:23:23;;;;;;;17.25;13.57;;;;;;;10.17;60.99;100083.50;5053656;28;20052;-79
2022/12/27 11:25:53;;;;;;;19.52;12.35;;;;;;;10.39;60.88;100094.47;5053898;28;20029;-80
2022/12/27 11:28:24;;;;;;;14.40;11.45;;;;;;;10.67;61.01;100119.59;5053486;28;20079;-79
2022/12/27 11:31:05;;;;;;;17.50;13.93;;;;;;;10.71;60.79;100139.41;5053452;28;20028;-79
2022/12/27 11:33:48;;;;;;;23.70;16.13;;;;;;;10.58;60.11;100085.44;5053072;28;20033;-79
2022/12/27 11:36:26;;;;;;;21.67;17.20;;;;;;;10.81;60.54;100123.41;5052932;28;20036;-79
2022/12/27 11:38:52;;;;;;;17.67;13.48;;;;;;;10.12;60.16;100006.66;5052918;28;20021;-79
2022/12/27 11:41:45;;;;;;;21.42;16.40;;;;;;;10.92;59.97;100115.13;5052807;28;20035;-80
2022/12/27 11:44:18;;;;;;;25.88;18.33;;;;;;;10.91;59.72;100100.28;5052850;28;20028;-80
2022/12/27 11:46:55;;;;;;;24.20;16.50;;;;;;;11.05;60.53;100099.59;5053064;28;20021;-79
2022/12/27 11:49:25;;;;;;;21.80;16.13;;;;;;;11.14;59.46;100093.31;5053060;28;20025;-79
2022/12/27 11:52:08;;;;;;;33.97;24.73;;;;;;;11.19;59.37;100095.47;5052956;28;20032;-79
2022/12/27 11:54:55;;;;;;;20.90;16.70;;;;;;;11.22;59.61;100096.94;5052858;28;20098;-79
2022/12/27 11:57:34;;;;;;;23.73;16.88;;;;;;;11.27;59.92;100097.28;5052722;28;20025;-79
2022/12/27 12:00:12;;;;;;;23.85;16.20;;;;;;;10.58;59.75;99967.44;5052669;28;20466;-79
2022/12/27 12:02:58;;;;;;;20.55;15.02;;;;;;;11.42;58.79;100095.56;5052615;28;20036;-79
2022/12/27 12:05:57;;;;;;;10.70;7.78;;;;;;;11.56;59.11;100086.94;5052541;28;20415;-79
2022/12/27 12:08:47;;;;;;;15.50;10.32;;;;;;;11.66;58.54;100095.50;5052215;28;20047;-79
2022/12/27 12:11:27;;;;;;;10.98;7.80;;;;;;;11.76;58.64;100085.53;5051977;28;20492;-79
2022/12/27 12:14:24;;;;;;;8.45;7.10;;;;;;;11.82;56.92;100083.22;5050716;28;20071;-79
2022/12/27 12:17:16;;;;;;;10.13;6.40;;;;;;;11.87;57.96;100084.34;5052368;28;20013;-79
2022/12/27 12:20:22;;;;;;;9.35;6.35;;;;;;;11.89;57.79;100098.25;5052579;28;20075;-79
2022/12/27 12:23:10;;;;;;;12.98;6.97;;;;;;;11.94;57.32;100081.88;5052205;28;20043;-79
2022/12/27 12:26:05;;;;;;;8.85;6.00;;;;;;;11.98;57.53;100080.53;5052628;28;20048;-79
2022/12/27 12:28:48;;;;;;;8.65;5.60;;;;;;;12.03;57.46;100086.13;5052279;28;20032;-79
2022/12/27 12:31:25;;;;;;;11.32;6.97;;;;;;;12.12;56.76;100085.06;5052199;28;20025;-79
2022/12/27 12:34:22;;;;;;;9.52;6.95;;;;;;;12.16;57.02;100077.59;5051635;28;20028;-79
2022/12/27 12:37:01;;;;;;;7.70;5.72;;;;;;;11.85;56.80;100022.84;5050657;28;20044;-79
2022/12/27 12:39:32;;;;;;;11.50;6.63;;;;;;;12.24;56.78;100081.03;5051854;28;20029;-79
2022/12/27 12:42:03;;;;;;;12.07;6.87;;;;;;;12.27;56.60;100085.97;5051922;28;20021;-79
2022/12/27 12:45:07;;;;;;;9.20;6.35;;;;;;;12.36;56.56;100084.91;5050628;28;20029;-79
2022/12/27 12:47:44;;;;;;;8.40;6.65;;;;;;;12.42;56.47;100080.72;5051173;28;20493;-79
2022/12/27 12:50:34;;;;;;;8.15;6.28;;;;;;;12.23;56.08;100038.84;5050169;28;20021;-79
2022/12/27 12:53:10;;;;;;;10.27;7.15;;;;;;;12.55;56.06;100085.44;5051000;28;20016;-79
2022/12/27 12:55:58;;;;;;;7.00;5.90;;;;;;;12.62;55.68;100083.72;5051903;28;20044;-80
2022/12/27 12:59:05;;;;;;;9.93;5.75;;;;;;;12.64;55.49;100081.75;5050798;28;20039;-79
2022/12/27 13:01:39;;;;;;;6.53;5.20;;;;;;;12.69;55.07;100090.81;5051871;28;20056;-79
2022/12/27 13:04:23;;;;;;;8.07;5.38;;;;;;;12.76;54.16;100082.16;5052277;28;20089;-79
2022/12/27 13:07:05;;;;;;;8.00;5.10;;;;;;;12.85;54.40;100081.06;5051722;28;20066;-79
2022/12/27 13:10:24;;;;;;;7.80;5.13;;;;;;;12.89;53.30;100090.31;5051916;28;20029;-79
2022/12/27 13:13:02;;;;;;;8.38;5.50;;;;;;;12.80;54.08;100059.59;5032731;28;20110;-79
2022/12/27 13:15:42;;;;;;;6.43;4.45;;;;;;;12.97;54.20;100083.09;5052268;28;20040;-80
2022/12/27 13:18:34;;;;;;;7.43;5.07;;;;;;;12.49;54.08;100012.81;5051839;28;20493;-79